Time;durP1;ratioP1;P1;durP2;ratioP2;P2;SDS_P1;SDS_P2;PMS_P1;PMS_P2;Temp;Humidity;BMP_temperature;BMP_pressure;BME280_temperature;BME280_humidity;BME280_pressure;Samples;Min_cycle;Max_cycle;Signal;HPM_P1;HPM_P2
2021/05/22 00:01:19;;;;;;;0.75;0.70;;;;;;;;;;5093163;28;20515;-49
2021/05/22 00:03:45;;;;;;;0.43;0.43;;;;;;;;;;5093598;28;20040;-48
2021/05/22 00:06:11;;;;;;;0.45;0.45;;;;;;;;;;5093418;28;20032;-48
2021/05/22 00:08:37;;;;;;;0.70;0.32;;;;;;;;;;5092612;28;20028;-49
2021/05/22 00:11:03;;;;;;;0.52;0.52;;;;;;;;;;5092530;28;20420;-49
2021/05/22 00:13:29;;;;;;;3.72;0.55;;;;;;;;;;5093377;28;20033;-48
2021/05/22 00:15:55;;;;;;;0.20;0.20;;;;;;;;;;5093158;28;20050;-48
2021/05/22 00:18:21;;;;;;;0.40;0.40;;;;;;;;;;5093262;28;20028;-49
2021/05/22 00:20:47;;;;;;;0.40;0.40;;;;;;;;;;5092629;28;20379;-49
2021/05/22 00:23:14;;;;;;;0.30;0.30;;;;;;;;;;5093353;28;20024;-49
2021/05/22 00:25:40;;;;;;;0.28;0.28;;;;;;;;;;5093241;28;20028;-49
2021/05/22 00:28:06;;;;;;;0.40;0.40;;;;;;;;;;5092863;28;20027;-48
2021/05/22 00:30:32;;;;;;;1.58;0.50;;;;;;;;;;5092260;28;20093;-48
2021/05/22 00:32:58;;;;;;;0.63;0.40;;;;;;;;;;5092921;28;20031;-49
2021/05/22 00:35:24;;;;;;;0.77;0.38;;;;;;;;;;5092605;28;20020;-49
2021/05/22 00:37:50;;;;;;;0.50;0.50;;;;;;;;;;5092586;28;20461;-48
2021/05/22 00:40:16;;;;;;;0.30;0.30;;;;;;;;;;5092235;28;20032;-49
2021/05/22 00:42:44;;;;;;;1.00;0.50;;;;;;;;;;5092578;28;20032;-49
2021/05/22 00:45:17;;;;;;;0.30;0.30;;;;;;;;;;5092634;28;20429;-48
2021/05/22 00:48:02;;;;;;;0.85;0.40;;;;;;;;;;5092430;28;20062;-48
2021/05/22 00:50:29;;;;;;;0.30;0.30;;;;;;;;;;5090710;28;20031;-49
2021/05/22 00:52:55;;;;;;;0.40;0.40;;;;;;;;;;5092580;28;20020;-48
2021/05/22 00:55:21;;;;;;;0.45;0.45;;;;;;;;;;5092498;28;20024;-48
2021/05/22 00:57:47;;;;;;;0.30;0.30;;;;;;;;;;5092229;28;20468;-48
2021/05/22 01:00:16;;;;;;;0.20;0.20;;;;;;;;;;5092064;28;20028;-48
2021/05/22 01:02:43;;;;;;;0.30;0.30;;;;;;;;;;5092553;28;20060;-48
2021/05/22 01:05:10;;;;;;;0.47;0.22;;;;;;;;;;5091990;28;20020;-48
2021/05/22 01:07:36;;;;;;;0.40;0.40;;;;;;;;;;5092145;28;20054;-49
2021/05/22 01:10:04;;;;;;;0.43;0.43;;;;;;;;;;5091944;28;20085;-48
2021/05/22 01:12:32;;;;;;;0.20;0.20;;;;;;;;;;5091438;28;20116;-48
2021/05/22 01:15:04;;;;;;;0.93;0.40;;;;;;;;;;5092258;28;20024;-49
2021/05/22 01:17:31;;;;;;;0.38;0.38;;;;;;;;;;5091644;28;20553;-48
2021/05/22 01:20:00;;;;;;;0.30;0.30;;;;;;;;;;5091537;28;20515;-47
2021/05/22 01:22:27;;;;;;;0.40;0.40;;;;;;;;;;5091473;28;20462;-48
2021/05/22 01:25:13;;;;;;;0.30;0.30;;;;;;;;;;5091708;28;20119;-49
2021/05/22 01:27:39;;;;;;;1.00;0.45;;;;;;;;;;5091417;28;20020;-49
2021/05/22 01:30:05;;;;;;;1.48;1.17;;;;;;;;;;5091243;28;20365;-49
2021/05/22 01:32:32;;;;;;;0.80;0.55;;;;;;;;;;5091784;28;20103;-48
2021/05/22 01:34:58;;;;;;;0.38;0.38;;;;;;;;;;5091955;28;20188;-49
2021/05/22 01:37:24;;;;;;;0.43;0.43;;;;;;;;;;5091285;28;20016;-49
2021/05/22 01:39:50;;;;;;;0.20;0.20;;;;;;;;;;5091350;28;20377;-49
2021/05/22 01:42:16;;;;;;;0.85;0.52;;;;;;;;;;5082665;28;20028;-49
2021/05/22 01:44:43;;;;;;;1.58;0.60;;;;;;;;;;5071066;28;20043;-48
2021/05/22 01:47:09;;;;;;;0.82;0.40;;;;;;;;;;5071337;28;20062;-48
2021/05/22 01:49:35;;;;;;;0.30;0.30;;;;;;;;;;5071317;28;20028;-48
2021/05/22 01:52:02;;;;;;;0.38;0.35;;;;;;;;;;5070936;28;20028;-48
2021/05/22 01:54:29;;;;;;;4.10;0.40;;;;;;;;;;5086815;28;20028;-49
2021/05/22 01:56:56;;;;;;;0.40;0.40;;;;;;;;;;5090547;28;20470;-48
2021/05/22 01:59:22;;;;;;;0.95;0.70;;;;;;;;;;5090584;28;20031;-48
2021/05/22 02:01:50;;;;;;;1.30;0.60;;;;;;;;;;5090473;28;20110;-49
2021/05/22 02:04:17;;;;;;;0.43;0.43;;;;;;;;;;5090989;28;20043;-48
2021/05/22 02:06:45;;;;;;;0.40;0.40;;;;;;;;;;5090391;28;20028;-48
2021/05/22 02:09:13;;;;;;;0.63;0.63;;;;;;;;;;5088370;28;20028;-48
2021/05/22 02:11:41;;;;;;;1.85;0.60;;;;;;;;;;5090526;28;20358;-48
2021/05/22 02:14:08;;;;;;;0.28;0.28;;;;;;;;;;5091419;28;20063;-49
2021/05/22 02:16:36;;;;;;;1.60;0.80;;;;;;;;;;5090804;28;20025;-48
2021/05/22 02:19:09;;;;;;;0.55;0.40;;;;;;;;;;5090875;28;20062;-48
2021/05/22 02:21:36;;;;;;;0.70;0.55;;;;;;;;;;5087957;28;20479;-48
2021/05/22 02:24:02;;;;;;;0.43;0.43;;;;;;;;;;5090742;28;20521;-49
2021/05/22 02:26:28;;;;;;;0.45;0.45;;;;;;;;;;5090769;28;20107;-48
2021/05/22 02:28:57;;;;;;;0.50;0.50;;;;;;;;;;5089917;28;20040;-48
2021/05/22 02:31:28;;;;;;;0.30;0.30;;;;;;;;;;5092929;28;20020;-49
2021/05/22 02:33:55;;;;;;;0.57;0.57;;;;;;;;;;5095132;28;20020;-49
2021/05/22 02:36:21;;;;;;;0.38;0.38;;;;;;;;;;5095183;28;20032;-48
2021/05/22 02:38:51;;;;;;;0.43;0.43;;;;;;;;;;5095287;28;20020;-48
2021/05/22 02:41:17;;;;;;;0.40;0.40;;;;;;;;;;5094462;28;20066;-49
2021/05/22 02:43:45;;;;;;;0.50;0.40;;;;;;;;;;5095264;28;20064;-48
2021/05/22 02:46:12;;;;;;;0.57;0.40;;;;;;;;;;5095057;28;20035;-48
2021/05/22 02:48:39;;;;;;;2.10;0.50;;;;;;;;;;5095194;28;20032;-48
2021/05/22 02:51:06;;;;;;;2.35;0.73;;;;;;;;;;5094491;28;20023;-48
2021/05/22 02:53:34;;;;;;;1.65;0.52;;;;;;;;;;5094654;28;20030;-49
2021/05/22 02:56:02;;;;;;;0.30;0.30;;;;;;;;;;5094740;28;20030;-49
2021/05/22 02:58:28;;;;;;;0.45;0.45;;;;;;;;;;5094926;28;20024;-49
2021/05/22 03:00:54;;;;;;;0.40;0.40;;;;;;;;;;5094020;28;20043;-49
2021/05/22 03:03:20;;;;;;;0.30;0.30;;;;;;;;;;5094276;28;20083;-48
2021/05/22 03:05:47;;;;;;;0.40;0.40;;;;;;;;;;5094717;28;20016;-48
2021/05/22 03:08:13;;;;;;;0.28;0.28;;;;;;;;;;5094553;28;20392;-49
2021/05/22 03:10:39;;;;;;;0.40;0.40;;;;;;;;;;5094434;28;20429;-49
2021/05/22 03:13:05;;;;;;;0.30;0.30;;;;;;;;;;5094116;28;20043;-49
2021/05/22 03:15:32;;;;;;;0.73;0.50;;;;;;;;;;5093832;28;20453;-48
2021/05/22 03:17:58;;;;;;;3.17;0.47;;;;;;;;;;5094102;28;20511;-49
2021/05/22 03:20:24;;;;;;;0.40;0.40;;;;;;;;;;5093792;28;20042;-48
2021/05/22 03:22:50;;;;;;;0.80;0.32;;;;;;;;;;5094233;28;20035;-50
2021/05/22 03:25:16;;;;;;;0.38;0.38;;;;;;;;;;5094402;28;20028;-49
2021/05/22 03:27:42;;;;;;;0.32;0.32;;;;;;;;;;5094501;28;20444;-49
2021/05/22 03:30:09;;;;;;;0.40;0.40;;;;;;;;;;5093329;28;20047;-48
2021/05/22 03:32:35;;;;;;;0.30;0.30;;;;;;;;;;5093839;28;20366;-49
2021/05/22 03:35:01;;;;;;;0.30;0.30;;;;;;;;;;5093988;28;20032;-49
2021/05/22 03:37:27;;;;;;;0.40;0.40;;;;;;;;;;5094023;28;20217;-48
2021/05/22 03:39:53;;;;;;;0.57;0.43;;;;;;;;;;5093826;28;20039;-49
2021/05/22 03:42:19;;;;;;;0.30;0.30;;;;;;;;;;5093136;28;20028;-49
2021/05/22 03:44:45;;;;;;;4.00;0.50;;;;;;;;;;5093679;28;20024;-49
2021/05/22 03:47:11;;;;;;;0.22;0.22;;;;;;;;;;5092337;28;20020;-48
2021/05/22 03:49:38;;;;;;;0.65;0.40;;;;;;;;;;5093413;28;20115;-49
2021/05/22 03:52:04;;;;;;;0.40;0.40;;;;;;;;;;5093206;28;20449;-48
2021/05/22 03:54:30;;;;;;;0.80;0.60;;;;;;;;;;5094036;28;20109;-49
2021/05/22 03:56:56;;;;;;;0.35;0.35;;;;;;;;;;5093676;28;20051;-49
2021/05/22 03:59:22;;;;;;;0.45;0.45;;;;;;;;;;5093099;28;20461;-49
2021/05/22 04:01:48;;;;;;;1.65;0.40;;;;;;;;;;5093041;28;20097;-49
2021/05/22 04:04:14;;;;;;;0.30;0.30;;;;;;;;;;5093656;28;20028;-48
2021/05/22 04:06:40;;;;;;;0.40;0.40;;;;;;;;;;5093490;28;20050;-49
2021/05/22 04:09:06;;;;;;;0.82;0.60;;;;;;;;;;5093722;28;20036;-50
2021/05/22 04:11:32;;;;;;;0.63;0.40;;;;;;;;;;5093181;28;20034;-49
2021/05/22 04:13:58;;;;;;;0.30;0.30;;;;;;;;;;5093090;28;20096;-48
2021/05/22 04:16:24;;;;;;;0.40;0.40;;;;;;;;;;5093138;28;20450;-49
2021/05/22 04:18:50;;;;;;;0.65;0.60;;;;;;;;;;5093176;28;20061;-49
2021/05/22 04:21:16;;;;;;;0.30;0.30;;;;;;;;;;5092836;28;20016;-48
2021/05/22 04:23:42;;;;;;;3.40;0.80;;;;;;;;;;5093149;28;20028;-48
2021/05/22 04:26:08;;;;;;;0.45;0.45;;;;;;;;;;5092918;28;20046;-49
2021/05/22 04:28:35;;;;;;;0.52;0.50;;;;;;;;;;5092563;28;20020;-48
2021/05/22 04:31:01;;;;;;;0.98;0.52;;;;;;;;;;5092372;28;20040;-49
2021/05/22 04:33:27;;;;;;;0.40;0.40;;;;;;;;;;5072298;28;20460;-48
2021/05/22 04:35:53;;;;;;;3.08;0.70;;;;;;;;;;5073071;28;20025;-48
2021/05/22 04:38:19;;;;;;;0.45;0.45;;;;;;;;;;5072442;28;20048;-47
2021/05/22 04:40:45;;;;;;;3.60;0.32;;;;;;;;;;5086901;28;20062;-48
2021/05/22 04:43:11;;;;;;;0.40;0.40;;;;;;;;;;5092240;28;20035;-47
2021/05/22 04:45:37;;;;;;;0.50;0.50;;;;;;;;;;5092656;28;20024;-48
2021/05/22 04:48:04;;;;;;;0.47;0.47;;;;;;;;;;5092598;28;20022;-48
2021/05/22 04:50:32;;;;;;;0.95;0.85;;;;;;;;;;5092803;28;20127;-48
2021/05/22 04:52:59;;;;;;;0.30;0.30;;;;;;;;;;5091931;28;20457;-48
2021/05/22 04:55:25;;;;;;;0.45;0.45;;;;;;;;;;5092437;28;20091;-49
2021/05/22 04:57:51;;;;;;;0.63;0.60;;;;;;;;;;5091936;28;20607;-47
2021/05/22 05:00:17;;;;;;;0.40;0.40;;;;;;;;;;5092324;28;20059;-48
2021/05/22 05:02:43;;;;;;;0.30;0.30;;;;;;;;;;5092661;28;20020;-48
2021/05/22 05:05:09;;;;;;;0.47;0.40;;;;;;;;;;5092172;28;20123;-48
2021/05/22 05:07:35;;;;;;;1.55;0.57;;;;;;;;;;5092083;28;20028;-49
2021/05/22 05:10:01;;;;;;;0.70;0.40;;;;;;;;;;5092089;28;20054;-48
2021/05/22 05:12:27;;;;;;;0.32;0.30;;;;;;;;;;5091785;28;20025;-49
2021/05/22 05:14:53;;;;;;;0.45;0.45;;;;;;;;;;5092597;28;20043;-49
2021/05/22 05:17:19;;;;;;;0.40;0.40;;;;;;;;;;5091619;28;20012;-48
2021/05/22 05:19:45;;;;;;;0.40;0.38;;;;;;;;;;5092313;28;20029;-49
2021/05/22 05:22:11;;;;;;;1.52;0.50;;;;;;;;;;5091459;28;20119;-49
2021/05/22 05:24:37;;;;;;;1.30;0.77;;;;;;;;;;5091582;28;20036;-48
2021/05/22 05:27:03;;;;;;;0.50;0.43;;;;;;;;;;5091673;28;20110;-48
2021/05/22 05:29:29;;;;;;;0.38;0.38;;;;;;;;;;5091048;28;20412;-49
2021/05/22 05:31:55;;;;;;;0.52;0.52;;;;;;;;;;5091166;28;20016;-49
2021/05/22 05:34:21;;;;;;;0.50;0.50;;;;;;;;;;5088956;28;20024;-48
2021/05/22 05:36:47;;;;;;;0.30;0.30;;;;;;;;;;5090907;28;20359;-48
2021/05/22 05:39:15;;;;;;;0.82;0.68;;;;;;;;;;5091477;28;20392;-48
2021/05/22 05:41:41;;;;;;;1.98;0.35;;;;;;;;;;5090810;28;20035;-48
2021/05/22 05:44:07;;;;;;;0.50;0.50;;;;;;;;;;5091721;28;20097;-48
2021/05/22 05:46:33;;;;;;;0.80;0.80;;;;;;;;;;5091322;28;20016;-49
2021/05/22 05:48:59;;;;;;;0.47;0.47;;;;;;;;;;5091694;28;20039;-48
2021/05/22 05:51:25;;;;;;;0.45;0.45;;;;;;;;;;5090999;28;20454;-48
2021/05/22 05:53:51;;;;;;;2.25;0.70;;;;;;;;;;5091060;28;20077;-49
2021/05/22 05:56:17;;;;;;;0.55;0.55;;;;;;;;;;5091206;28;20024;-49
2021/05/22 05:58:43;;;;;;;1.10;0.73;;;;;;;;;;5091199;28;20020;-48
2021/05/22 06:01:13;;;;;;;0.70;0.70;;;;;;;;;;5091091;28;20020;-49
2021/05/22 06:03:39;;;;;;;1.85;0.60;;;;;;;;;;5091058;28;20028;-48
2021/05/22 06:06:05;;;;;;;0.40;0.40;;;;;;;;;;5091452;28;20058;-49
2021/05/22 06:08:31;;;;;;;0.85;0.30;;;;;;;;;;5076700;28;20154;-48
2021/05/22 06:10:59;;;;;;;4.97;0.82;;;;;;;;;;5070610;28;20521;-48
2021/05/22 06:13:26;;;;;;;1.02;0.50;;;;;;;;;;5070949;28;20047;-48
2021/05/22 06:16:11;;;;;;;0.70;0.70;;;;;;;;;;5073799;28;20032;-49
2021/05/22 06:18:39;;;;;;;0.50;0.50;;;;;;;;;;5091190;28;20099;-49
2021/05/22 06:21:07;;;;;;;1.75;0.60;;;;;;;;;;5090711;28;20054;-49
2021/05/22 06:23:33;;;;;;;0.73;0.60;;;;;;;;;;5091146;28;20028;-49
2021/05/22 06:25:59;;;;;;;0.93;0.75;;;;;;;;;;5091138;28;20020;-49
2021/05/22 06:28:26;;;;;;;0.65;0.40;;;;;;;;;;5089851;28;20085;-48
2021/05/22 06:30:52;;;;;;;1.90;0.57;;;;;;;;;;5090055;28;20043;-48
2021/05/22 06:33:18;;;;;;;4.75;0.73;;;;;;;;;;5089990;28;20035;-50
2021/05/22 06:35:44;;;;;;;0.30;0.30;;;;;;;;;;5090222;28;20034;-49
2021/05/22 06:38:10;;;;;;;0.47;0.32;;;;;;;;;;5089705;28;20451;-49
2021/05/22 06:40:36;;;;;;;2.30;0.63;;;;;;;;;;5089948;28;20098;-49
2021/05/22 06:43:03;;;;;;;0.82;0.68;;;;;;;;;;5090562;28;20057;-49
2021/05/22 06:45:38;;;;;;;3.90;0.57;;;;;;;;;;5090499;28;20020;-49
2021/05/22 06:48:06;;;;;;;0.50;0.50;;;;;;;;;;5087218;28;20027;-48
2021/05/22 06:50:32;;;;;;;0.52;0.52;;;;;;;;;;5090243;28;20445;-48
2021/05/22 06:52:58;;;;;;;0.57;0.55;;;;;;;;;;5090540;28;20046;-49
2021/05/22 06:55:24;;;;;;;4.70;1.02;;;;;;;;;;5090955;28;20111;-48
2021/05/22 06:57:50;;;;;;;0.38;0.38;;;;;;;;;;5090215;28;20024;-48
2021/05/22 07:00:16;;;;;;;8.15;0.90;;;;;;;;;;5090242;28;20043;-48
2021/05/22 07:02:42;;;;;;;3.13;1.08;;;;;;;;;;5090604;28;20031;-48
2021/05/22 07:05:08;;;;;;;2.17;0.57;;;;;;;;;;5090702;28;20357;-48
2021/05/22 07:07:36;;;;;;;0.45;0.40;;;;;;;;;;5084098;28;20070;-48
2021/05/22 07:10:03;;;;;;;0.38;0.38;;;;;;;;;;5070266;28;20130;-48
2021/05/22 07:12:29;;;;;;;0.80;0.50;;;;;;;;;;5070095;28;20359;-47
2021/05/22 07:14:54;;;;;;;1.17;0.57;;;;;;;;;;5070432;28;20032;-47
2021/05/22 07:17:20;;;;;;;1.40;0.68;;;;;;;;;;5087379;28;20525;-48
2021/05/22 07:19:46;;;;;;;0.38;0.38;;;;;;;;;;5094403;28;20028;-48
2021/05/22 07:22:12;;;;;;;0.50;0.50;;;;;;;;;;5093609;28;20115;-48
2021/05/22 07:24:38;;;;;;;1.25;0.75;;;;;;;;;;5094069;28;20020;-48
2021/05/22 07:27:04;;;;;;;3.53;0.60;;;;;;;;;;5092231;28;20085;-48
2021/05/22 07:29:30;;;;;;;4.00;0.80;;;;;;;;;;5094077;28;20054;-48
2021/05/22 07:31:57;;;;;;;1.13;0.47;;;;;;;;;;5094162;28;20027;-48
2021/05/22 07:34:23;;;;;;;0.57;0.50;;;;;;;;;;5093810;28;20099;-48
2021/05/22 07:36:49;;;;;;;0.45;0.30;;;;;;;;;;5094029;28;20044;-48
2021/05/22 07:39:15;;;;;;;0.25;0.25;;;;;;;;;;5093137;28;20034;-48
2021/05/22 07:41:42;;;;;;;0.47;0.47;;;;;;;;;;5093377;28;20032;-48
2021/05/22 07:44:08;;;;;;;0.50;0.40;;;;;;;;;;5093586;28;20032;-48
2021/05/22 07:46:34;;;;;;;5.60;0.80;;;;;;;;;;5094107;28;20021;-48
2021/05/22 07:49:00;;;;;;;1.95;0.63;;;;;;;;;;5093913;28;20394;-48
2021/05/22 07:51:26;;;;;;;1.75;0.77;;;;;;;;;;5093625;28;20357;-49
2021/05/22 07:53:52;;;;;;;0.50;0.50;;;;;;;;;;5093423;28;20016;-48
2021/05/22 07:56:18;;;;;;;2.72;0.70;;;;;;;;;;5093448;28;20052;-48
2021/05/22 07:58:45;;;;;;;2.22;0.52;;;;;;;;;;5093931;28;20054;-47
2021/05/22 08:01:11;;;;;;;0.35;0.35;;;;;;;;;;5093283;28;20030;-48
2021/05/22 08:03:37;;;;;;;4.38;0.65;;;;;;;;;;5093173;28;20036;-50
2021/05/22 08:06:03;;;;;;;5.68;0.82;;;;;;;;;;5093359;28;20438;-48
2021/05/22 08:08:29;;;;;;;3.63;0.95;;;;;;;;;;5093167;28;20032;-48
2021/05/22 08:10:55;;;;;;;1.08;0.55;;;;;;;;;;5092930;28;20043;-48
2021/05/22 08:13:21;;;;;;;1.33;0.60;;;;;;;;;;5093506;28;20020;-48
2021/05/22 08:15:47;;;;;;;0.30;0.30;;;;;;;;;;5093338;28;20020;-49
2021/05/22 08:18:13;;;;;;;2.67;0.65;;;;;;;;;;5091961;28;20035;-49
2021/05/22 08:20:39;;;;;;;3.25;0.60;;;;;;;;;;5092486;28;20024;-49
2021/05/22 08:23:05;;;;;;;1.05;0.40;;;;;;;;;;5092914;28;20450;-49
2021/05/22 08:25:31;;;;;;;3.17;0.40;;;;;;;;;;5092567;28;20036;-49
2021/05/22 08:27:57;;;;;;;3.33;1.02;;;;;;;;;;5092494;28;20034;-48
2021/05/22 08:30:24;;;;;;;5.18;0.70;;;;;;;;;;5092347;28;20062;-49
2021/05/22 08:32:50;;;;;;;2.67;0.70;;;;;;;;;;5091703;28;20061;-49
2021/05/22 08:35:16;;;;;;;1.60;0.40;;;;;;;;;;5092791;28;20024;-48
2021/05/22 08:37:42;;;;;;;1.05;0.50;;;;;;;;;;5092636;28;20028;-48
2021/05/22 08:40:09;;;;;;;0.63;0.43;;;;;;;;;;5092868;28;20020;-49
2021/05/22 08:42:36;;;;;;;0.68;0.65;;;;;;;;;;5093100;28;20030;-48
2021/05/22 08:45:16;;;;;;;0.28;0.28;;;;;;;;;;5092477;28;20028;-49
2021/05/22 08:47:42;;;;;;;1.52;0.50;;;;;;;;;;5092623;28;20455;-48
2021/05/22 08:50:10;;;;;;;0.68;0.68;;;;;;;;;;5092481;28;20028;-48
2021/05/22 08:52:36;;;;;;;4.13;0.93;;;;;;;;;;5092056;28;20039;-48
2021/05/22 08:55:03;;;;;;;1.83;0.65;;;;;;;;;;5092696;28;20028;-48
2021/05/22 08:57:29;;;;;;;0.52;0.52;;;;;;;;;;5092579;28;20024;-47
2021/05/22 08:59:55;;;;;;;1.45;0.30;;;;;;;;;;5092355;28;20033;-48
2021/05/22 09:02:22;;;;;;;3.75;0.95;;;;;;;;;;5092227;28;20028;-48
2021/05/22 09:05:07;;;;;;;2.28;0.40;;;;;;;;;;5092162;28;20060;-49
2021/05/22 09:07:34;;;;;;;0.73;0.60;;;;;;;;;;5085210;28;20029;-47
2021/05/22 09:10:08;;;;;;;1.00;0.45;;;;;;;;;;5071720;28;20024;-48
2021/05/22 09:12:35;;;;;;;1.75;0.60;;;;;;;;;;5071807;28;20030;-48
2021/05/22 09:15:06;;;;;;;1.55;0.65;;;;;;;;;;5071637;28;20383;-48
2021/05/22 09:17:32;;;;;;;2.15;0.70;;;;;;;;;;5088251;28;20024;-48
2021/05/22 09:20:10;;;;;;;0.50;0.50;;;;;;;;;;5091809;28;20035;-48
2021/05/22 09:22:36;;;;;;;3.53;0.85;;;;;;;;;;5090618;28;20036;-48
2021/05/22 09:25:05;;;;;;;1.55;0.57;;;;;;;;;;5091571;28;20073;-47
2021/05/22 09:27:32;;;;;;;1.65;0.77;;;;;;;;;;5092134;28;20373;-48
2021/05/22 09:30:03;;;;;;;2.60;0.68;;;;;;;;;;5091451;28;20126;-48
2021/05/22 09:32:29;;;;;;;4.20;0.65;;;;;;;;;;5091647;28;20031;-48
2021/05/22 09:34:55;;;;;;;2.38;0.60;;;;;;;;;;5090930;28;20050;-47
2021/05/22 09:37:22;;;;;;;3.22;0.32;;;;;;;;;;5092000;28;20442;-48
2021/05/22 09:39:49;;;;;;;0.75;0.68;;;;;;;;;;5091300;28;20057;-48
2021/05/22 09:42:23;;;;;;;0.30;0.30;;;;;;;;;;5091658;28;20046;-48
2021/05/22 09:44:49;;;;;;;0.32;0.32;;;;;;;;;;5091601;28;20028;-48
2021/05/22 09:47:15;;;;;;;3.63;0.77;;;;;;;;;;5091374;28;20417;-48
2021/05/22 09:49:41;;;;;;;0.30;0.30;;;;;;;;;;5091319;28;20050;-48
2021/05/22 09:52:12;;;;;;;1.75;1.17;;;;;;;;;;5091626;28;20008;-48
2021/05/22 09:54:55;;;;;;;1.65;0.70;;;;;;;;;;5091955;28;20047;-48
2021/05/22 09:57:21;;;;;;;1.67;0.95;;;;;;;;;;5091439;28;20036;-48
2021/05/22 10:00:05;;;;;;;1.17;0.63;;;;;;;;;;5090989;28;20024;-48
2021/05/22 10:02:40;;;;;;;0.80;0.70;;;;;;;;;;5091050;28;20484;-48
2021/05/22 10:05:12;;;;;;;1.98;0.75;;;;;;;;;;5091208;28;20035;-48
2021/05/22 10:07:39;;;;;;;2.08;0.75;;;;;;;;;;5091451;28;20499;-48
2021/05/22 10:10:05;;;;;;;0.40;0.40;;;;;;;;;;5090972;28;20441;-48
2021/05/22 10:12:31;;;;;;;1.27;0.50;;;;;;;;;;5091220;28;20028;-48
2021/05/22 10:14:58;;;;;;;5.78;0.70;;;;;;;;;;5091054;28;20016;-48
2021/05/22 10:17:24;;;;;;;1.30;0.80;;;;;;;;;;5091134;28;20040;-47
2021/05/22 10:19:50;;;;;;;0.50;0.50;;;;;;;;;;5091448;28;20032;-48
2021/05/22 10:22:17;;;;;;;0.70;0.60;;;;;;;;;;5091208;28;20028;-48
2021/05/22 10:24:43;;;;;;;2.97;1.13;;;;;;;;;;5090969;28;20020;-48
2021/05/22 10:27:10;;;;;;;0.82;0.50;;;;;;;;;;5090765;28;20057;-48
2021/05/22 10:29:36;;;;;;;2.65;0.60;;;;;;;;;;5091095;28;20160;-48
2021/05/22 10:32:02;;;;;;;2.53;0.50;;;;;;;;;;5090480;28;20462;-48
2021/05/22 10:34:34;;;;;;;1.30;0.60;;;;;;;;;;5090941;28;20075;-48
2021/05/22 10:37:00;;;;;;;1.75;0.63;;;;;;;;;;5091209;28;20457;-48
2021/05/22 10:39:33;;;;;;;2.25;0.80;;;;;;;;;;5090728;28;20118;-48
2021/05/22 10:42:00;;;;;;;1.40;0.57;;;;;;;;;;5088870;28;20524;-48
2021/05/22 10:44:33;;;;;;;0.30;0.30;;;;;;;;;;5091121;28;20036;-49
2021/05/22 10:47:14;;;;;;;0.68;0.68;;;;;;;;;;5091170;28;20376;-48
2021/05/22 10:49:55;;;;;;;1.15;0.70;;;;;;;;;;5090753;28;20349;-48
2021/05/22 10:52:22;;;;;;;2.40;0.90;;;;;;;;;;5092796;28;20028;-48
2021/05/22 10:55:07;;;;;;;1.83;1.02;;;;;;;;;;5095182;28;20028;-48
2021/05/22 10:57:49;;;;;;;0.75;0.50;;;;;;;;;;5094834;28;20476;-48
2021/05/22 11:00:16;;;;;;;0.30;0.30;;;;;;;;;;5094370;28;20024;-48
2021/05/22 11:02:44;;;;;;;0.35;0.35;;;;;;;;;;5094732;28;20028;-48
2021/05/22 11:05:28;;;;;;;7.60;1.60;;;;;;;;;;5094366;28;20039;-48
2021/05/22 11:08:02;;;;;;;2.53;0.82;;;;;;;;;;5084785;28;20020;-48
2021/05/22 11:10:35;;;;;;;1.30;1.17;;;;;;;;;;5073884;28;20032;-49
2021/05/22 11:13:01;;;;;;;0.57;0.57;;;;;;;;;;5073810;28;20060;-48
2021/05/22 11:15:37;;;;;;;1.83;1.63;;;;;;;;;;5074101;28;20488;-49
2021/05/22 11:18:03;;;;;;;1.25;1.17;;;;;;;;;;5074253;28;20028;-48
2021/05/22 11:20:29;;;;;;;4.25;1.67;;;;;;;;;;5073775;28;20442;-48
2021/05/22 11:22:57;;;;;;;0.93;0.77;;;;;;;;;;5074051;28;20029;-48
2021/05/22 11:25:23;;;;;;;0.93;0.88;;;;;;;;;;5073877;28;20028;-48
2021/05/22 11:27:52;;;;;;;1.13;0.70;;;;;;;;;;5074023;28;20134;-48
2021/05/22 11:30:24;;;;;;;0.38;0.22;;;;;;;;;;5073299;28;20044;-48
2021/05/22 11:32:54;;;;;;;0.50;0.50;;;;;;;;;;5073657;28;20457;-48
2021/05/22 11:35:32;;;;;;;0.30;0.30;;;;;;;;;;5074322;28;20074;-48
2021/05/22 11:37:59;;;;;;;0.30;0.30;;;;;;;;;;5073296;28;20038;-48
2021/05/22 11:40:35;;;;;;;0.57;0.40;;;;;;;;;;5085523;28;20050;-48
2021/05/22 11:43:22;;;;;;;0.30;0.30;;;;;;;;;;5093941;28;20032;-48
2021/05/22 11:46:05;;;;;;;0.45;0.45;;;;;;;;;;5093640;28;20027;-47
2021/05/22 11:48:31;;;;;;;2.97;0.90;;;;;;;;;;5094218;28;20032;-48
2021/05/22 11:50:57;;;;;;;1.02;0.68;;;;;;;;;;5093428;28;20483;-49
2021/05/22 11:53:23;;;;;;;0.25;0.25;;;;;;;;;;5093294;28;20050;-48
2021/05/22 11:55:58;;;;;;;0.85;0.50;;;;;;;;;;5094162;28;20069;-48
2021/05/22 11:58:25;;;;;;;0.20;0.20;;;;;;;;;;5093613;28;20028;-49
2021/05/22 12:00:50;;;;;;;0.75;0.75;;;;;;;;;;5093070;28;20066;-48
2021/05/22 12:03:24;;;;;;;0.63;0.63;;;;;;;;;;5092965;28;20040;-49
2021/05/22 12:05:50;;;;;;;0.30;0.30;;;;;;;;;;5093810;28;20027;-48
2021/05/22 12:08:17;;;;;;;0.20;0.20;;;;;;;;;;5080764;28;20036;-48
2021/05/22 12:10:43;;;;;;;0.70;0.65;;;;;;;;;;5072731;28;20054;-48
2021/05/22 12:13:09;;;;;;;0.20;0.20;;;;;;;;;;5073130;28;20021;-48
2021/05/22 12:15:36;;;;;;;0.80;0.70;;;;;;;;;;5073406;28;20115;-48
2021/05/22 12:18:03;;;;;;;0.30;0.30;;;;;;;;;;5093073;28;20568;-48
2021/05/22 12:20:30;;;;;;;0.77;0.77;;;;;;;;;;5092949;28;20158;-48
2021/05/22 12:22:56;;;;;;;1.70;1.13;;;;;;;;;;5092804;28;20067;-48
2021/05/22 12:25:22;;;;;;;0.55;0.35;;;;;;;;;;5092874;28;20035;-48
2021/05/22 12:27:49;;;;;;;2.80;0.60;;;;;;;;;;5092262;28;20051;-48
2021/05/22 12:30:15;;;;;;;0.73;0.50;;;;;;;;;;5092722;28;20039;-48
2021/05/22 12:32:41;;;;;;;1.90;0.40;;;;;;;;;;5092013;28;20042;-48
2021/05/22 12:35:09;;;;;;;0.50;0.32;;;;;;;;;;5092357;28;20399;-48
2021/05/22 12:37:35;;;;;;;18.73;0.60;;;;;;;;;;5092363;28;20075;-48
2021/05/22 12:40:04;;;;;;;1.38;0.88;;;;;;;;;;5092796;28;20020;-48
2021/05/22 12:42:31;;;;;;;0.30;0.30;;;;;;;;;;5092676;28;20310;-48
2021/05/22 12:44:58;;;;;;;9.73;0.65;;;;;;;;;;5092865;28;20031;-48
2021/05/22 12:47:36;;;;;;;0.25;0.25;;;;;;;;;;5092962;28;20013;-49
2021/05/22 12:50:05;;;;;;;0.43;0.43;;;;;;;;;;5092965;28;20031;-48
2021/05/22 12:52:31;;;;;;;0.80;0.80;;;;;;;;;;5092100;28;20058;-48
2021/05/22 12:54:57;;;;;;;0.30;0.30;;;;;;;;;;5092464;28;20028;-48
2021/05/22 12:57:36;;;;;;;6.95;1.00;;;;;;;;;;5092406;28;20062;-48
2021/05/22 13:00:02;;;;;;;0.43;0.43;;;;;;;;;;5092669;28;20024;-48
2021/05/22 13:02:29;;;;;;;1.23;0.70;;;;;;;;;;5091795;28;20024;-48
2021/05/22 13:05:18;;;;;;;5.22;0.70;;;;;;;;;;5092514;28;20032;-48
2021/05/22 13:07:48;;;;;;;1.55;0.30;;;;;;;;;;5083494;28;20060;-48
2021/05/22 13:10:15;;;;;;;1.13;0.70;;;;;;;;;;5071663;28;20032;-48
2021/05/22 13:12:54;;;;;;;1.27;0.35;;;;;;;;;;5072246;28;20077;-49
2021/05/22 13:15:21;;;;;;;0.40;0.40;;;;;;;;;;5071708;28;20124;-48
2021/05/22 13:17:47;;;;;;;1.65;0.35;;;;;;;;;;5090029;28;20191;-49
2021/05/22 13:20:18;;;;;;;0.65;0.40;;;;;;;;;;5092079;28;20128;-48
2021/05/22 13:22:45;;;;;;;0.52;0.52;;;;;;;;;;5091911;28;20016;-48
2021/05/22 13:25:15;;;;;;;0.38;0.38;;;;;;;;;;5091803;28;20032;-49
2021/05/22 13:27:58;;;;;;;0.30;0.30;;;;;;;;;;5091943;28;20024;-48
2021/05/22 13:30:25;;;;;;;0.47;0.40;;;;;;;;;;5091692;28;20516;-48
2021/05/22 13:32:51;;;;;;;1.48;0.93;;;;;;;;;;5092151;28;20039;-48
2021/05/22 13:35:19;;;;;;;0.30;0.30;;;;;;;;;;5091861;28;20035;-48
2021/05/22 13:37:45;;;;;;;0.40;0.40;;;;;;;;;;5091207;28;20031;-48
2021/05/22 13:40:12;;;;;;;0.80;0.57;;;;;;;;;;5091428;28;20027;-48
2021/05/22 13:42:38;;;;;;;0.35;0.22;;;;;;;;;;5091472;28;20042;-48
2021/05/22 13:45:04;;;;;;;0.50;0.50;;;;;;;;;;5091981;28;20063;-49
2021/05/22 13:47:30;;;;;;;0.55;0.38;;;;;;;;;;5091622;28;20061;-48
2021/05/22 13:49:56;;;;;;;0.35;0.35;;;;;;;;;;5091603;28;20028;-48
2021/05/22 13:52:22;;;;;;;2.53;1.20;;;;;;;;;;5091514;28;20425;-49
2021/05/22 13:54:48;;;;;;;2.35;0.98;;;;;;;;;;5091156;28;20074;-48
2021/05/22 13:57:14;;;;;;;0.40;0.40;;;;;;;;;;5091886;28;20038;-48
2021/05/22 13:59:40;;;;;;;5.88;0.93;;;;;;;;;;5091620;28;20031;-48
2021/05/22 14:02:07;;;;;;;1.35;0.52;;;;;;;;;;5091353;28;20384;-48
2021/05/22 14:04:33;;;;;;;1.83;0.75;;;;;;;;;;5090760;28;20047;-49
2021/05/22 14:06:59;;;;;;;2.83;1.27;;;;;;;;;;5090962;28;20016;-49
2021/05/22 14:09:25;;;;;;;1.70;0.85;;;;;;;;;;5090400;28;20380;-49
2021/05/22 14:11:51;;;;;;;5.45;1.45;;;;;;;;;;5091258;28;20405;-48
2021/05/22 14:14:17;;;;;;;0.75;0.75;;;;;;;;;;5091419;28;20066;-49
2021/05/22 14:16:44;;;;;;;1.75;1.30;;;;;;;;;;5091249;28;20031;-49
2021/05/22 14:19:10;;;;;;;0.57;0.50;;;;;;;;;;5091225;28;20255;-49
2021/05/22 14:21:36;;;;;;;4.82;1.52;;;;;;;;;;5091230;28;20580;-49
2021/05/22 14:24:02;;;;;;;0.82;0.50;;;;;;;;;;5090936;28;20093;-48
2021/05/22 14:26:28;;;;;;;1.63;0.77;;;;;;;;;;5091074;28;20358;-49
2021/05/22 14:28:54;;;;;;;0.70;0.70;;;;;;;;;;5095182;28;20053;-49
2021/05/22 14:31:20;;;;;;;1.33;0.40;;;;;;;;;;5092129;28;20032;-48
2021/05/22 14:33:46;;;;;;;0.73;0.57;;;;;;;;;;5095012;28;20467;-48
2021/05/22 14:36:12;;;;;;;0.75;0.75;;;;;;;;;;5094625;28;20103;-49
2021/05/22 14:38:38;;;;;;;1.80;0.73;;;;;;;;;;5093994;28;20380;-48
2021/05/22 14:41:05;;;;;;;1.90;0.80;;;;;;;;;;5094825;28;20032;-49
2021/05/22 14:43:32;;;;;;;1.00;0.57;;;;;;;;;;5094830;28;20032;-49
2021/05/22 14:45:58;;;;;;;2.15;0.80;;;;;;;;;;5094623;28;20020;-48